Time;durP1;ratioP1;P1;durP2;ratioP2;P2;SDS_P1;SDS_P2;PMS_P1;PMS_P2;Temp;Humidity;BMP_temperature;BMP_pressure;BME280_temperature;BME280_humidity;BME280_pressure;Samples;Min_cycle;Max_cycle;Signal;HPM_P1;HPM_P2
2022/09/21 00:01:35;;;;;;;9.65;5.95;;;;;;;11.60;79.95;100074.83;1652564;85;21268;-57
2022/09/21 00:04:43;;;;;;;10.00;6.45;;;;;;;11.62;79.92;100070.02;1684276;83;21267;-57
2022/09/21 00:07:49;;;;;;;12.13;6.55;;;;;;;11.62;79.87;100068.09;1685091;84;21231;-57
2022/09/21 00:10:58;;;;;;;11.05;6.45;;;;;;;11.62;79.87;100079.06;1674733;84;21231;-57
2022/09/21 00:14:09;;;;;;;12.43;6.53;;;;;;;11.63;79.97;100064.88;1674027;85;21221;-56
2022/09/21 00:17:15;;;;;;;10.05;6.35;;;;;;;11.65;80.10;100055.95;1674420;85;21248;-56
2022/09/21 00:20:23;;;;;;;8.33;6.80;;;;;;;11.64;80.02;100054.23;1675032;85;21220;-56
2022/09/21 00:23:29;;;;;;;9.93;5.95;;;;;;;11.58;79.99;100053.59;1657448;86;21236;-56
2022/09/21 00:26:35;;;;;;;8.18;6.25;;;;;;;11.56;80.01;100055.16;1674446;85;21339;-57
2022/09/21 00:29:40;;;;;;;8.48;7.00;;;;;;;11.57;80.03;100050.02;1674404;85;21221;-56
2022/09/21 00:32:47;;;;;;;9.50;6.95;;;;;;;11.59;80.01;100054.77;1674357;86;21264;-56
2022/09/21 00:35:53;;;;;;;10.20;7.45;;;;;;;11.59;80.05;100045.18;1674408;85;21197;-56
2022/09/21 00:39:03;;;;;;;10.90;7.03;;;;;;;11.58;80.06;100038.52;1674147;85;21229;-56
2022/09/21 00:42:12;;;;;;;8.58;6.65;;;;;;;11.55;80.00;100045.75;1674955;85;21193;-56
2022/09/21 00:45:22;;;;;;;11.03;7.33;;;;;;;11.51;79.98;100048.56;1675558;85;21261;-56
2022/09/21 00:48:28;;;;;;;10.30;7.78;;;;;;;11.47;79.99;100041.23;1675423;85;21765;-55
2022/09/21 00:51:34;;;;;;;9.73;6.17;;;;;;;11.44;80.06;100039.38;1674491;85;21269;-56
2022/09/21 00:54:47;;;;;;;10.38;6.40;;;;;;;11.41;80.18;100045.25;1674380;86;21264;-56
2022/09/21 00:57:58;;;;;;;8.20;5.95;;;;;;;11.37;80.28;100043.94;1674414;86;21209;-55
2022/09/21 01:01:04;;;;;;;9.38;5.87;;;;;;;11.30;80.32;100036.13;1674280;85;21178;-55
2022/09/21 01:04:10;;;;;;;6.67;5.25;;;;;;;11.22;80.37;100044.44;1674102;85;21277;-55
2022/09/21 01:07:19;;;;;;;7.65;5.50;;;;;;;11.16;80.42;100045.20;1674502;84;21229;-55
2022/09/21 01:10:26;;;;;;;7.40;4.60;;;;;;;11.07;80.37;100051.81;1674324;86;21273;-56
2022/09/21 01:13:45;;;;;;;8.18;4.45;;;;;;;10.96;80.34;100044.88;1674498;85;21272;-55
2022/09/21 01:17:17;;;;;;;8.00;4.30;;;;;;;10.86;80.35;100039.34;1671340;84;21187;-56
2022/09/21 01:20:32;;;;;;;5.12;4.12;;;;;;;10.76;80.35;100041.48;1659649;85;21232;-55
2022/09/21 01:23:48;;;;;;;6.45;4.15;;;;;;;10.65;80.37;100040.05;1657622;86;21232;-55
2022/09/21 01:27:14;;;;;;;6.45;3.87;;;;;;;10.55;80.37;100042.19;1673435;86;21766;-55
2022/09/21 01:30:22;;;;;;;6.12;4.67;;;;;;;10.47;80.40;100043.11;1673636;85;21231;-55
2022/09/21 01:33:34;;;;;;;8.13;4.75;;;;;;;10.39;80.37;100043.69;1697679;84;21802;-55
2022/09/21 01:36:39;;;;;;;5.83;4.78;;;;;;;10.33;80.34;100046.65;1673996;85;21358;-55
2022/09/21 01:39:45;;;;;;;7.60;4.95;;;;;;;10.25;80.34;100028.92;1685203;84;21226;-55
2022/09/21 01:42:51;;;;;;;5.37;4.37;;;;;;;10.18;80.34;100036.14;1706368;84;21191;-55
2022/09/21 01:46:00;;;;;;;7.75;4.83;;;;;;;10.13;80.39;100045.41;1703394;84;21230;-56
2022/09/21 01:49:10;;;;;;;7.00;4.72;;;;;;;10.06;80.39;100040.81;1703288;84;21269;-55
2022/09/21 01:52:33;;;;;;;7.03;4.00;;;;;;;9.99;80.40;100037.95;1703462;84;21199;-55
2022/09/21 01:55:45;;;;;;;7.17;4.30;;;;;;;9.92;80.43;100043.82;1703457;84;21210;-56
2022/09/21 01:59:07;;;;;;;7.25;3.95;;;;;;;9.88;80.46;100040.23;1710956;84;21190;-54
2022/09/21 02:02:30;;;;;;;7.28;4.15;;;;;;;9.80;80.51;100038.41;1712820;83;21262;-57
2022/09/21 02:05:36;;;;;;;6.58;4.22;;;;;;;9.74;80.50;100050.05;1711383;83;21281;-56
2022/09/21 02:08:42;;;;;;;8.50;4.37;;;;;;;9.67;80.52;100055.89;1713896;82;21734;-54
2022/09/21 02:11:50;;;;;;;11.97;4.25;;;;;;;9.61;80.54;100055.23;1687758;83;21214;-54
2022/09/21 02:14:56;;;;;;;5.45;3.98;;;;;;;9.56;80.58;100056.81;1715973;83;21236;-54
2022/09/21 02:18:15;;;;;;;4.65;3.70;;;;;;;9.49;80.51;100047.61;1716137;83;21237;-54
2022/09/21 02:21:40;;;;;;;4.92;3.42;;;;;;;9.43;80.44;100060.62;1708368;84;21210;-56
2022/09/21 02:25:02;;;;;;;8.30;3.47;;;;;;;9.36;80.39;100056.37;1715921;83;21280;-55
2022/09/21 02:28:25;;;;;;;7.33;3.90;;;;;;;9.28;80.38;100049.56;1694674;84;21277;-55
2022/09/21 02:31:57;;;;;;;7.92;3.92;;;;;;;9.22;80.38;100050.27;1708448;83;21475;-56
2022/09/21 02:35:29;;;;;;;6.42;4.15;;;;;;;9.16;80.39;100049.62;1693444;84;21261;-55
2022/09/21 02:38:46;;;;;;;5.62;3.80;;;;;;;9.09;80.50;100048.59;1684599;83;21225;-54
2022/09/21 02:42:19;;;;;;;6.53;3.92;;;;;;;9.04;80.58;100057.31;1674392;86;21312;-55
2022/09/21 02:45:39;;;;;;;5.37;3.98;;;;;;;8.99;80.66;100061.08;1674319;86;21257;-55
2022/09/21 02:48:56;;;;;;;5.62;3.83;;;;;;;8.97;80.73;100063.66;1715400;83;21234;-57
2022/09/21 02:52:06;;;;;;;5.33;3.62;;;;;;;8.92;80.68;100064.68;1684242;84;21270;-55
2022/09/21 02:55:15;;;;;;;5.05;3.35;;;;;;;8.87;80.61;100071.16;1709012;83;21194;-55
2022/09/21 02:58:21;;;;;;;6.20;4.17;;;;;;;8.81;80.53;100077.31;1708223;83;21439;-56
2022/09/21 03:01:28;;;;;;;7.25;4.05;;;;;;;8.74;80.47;100077.66;1673974;83;21360;-55
2022/09/21 03:04:34;;;;;;;5.90;4.12;;;;;;;8.66;80.38;100079.02;1708148;84;21217;-55
2022/09/21 03:07:39;;;;;;;5.60;4.03;;;;;;;8.60;80.35;100075.61;1707719;83;21218;-56
2022/09/21 03:10:45;;;;;;;5.53;4.30;;;;;;;8.55;80.39;100078.86;1708111;84;21230;-56
2022/09/21 03:13:51;;;;;;;5.42;3.85;;;;;;;8.50;80.38;100073.59;1708419;83;21234;-55
2022/09/21 03:16:59;;;;;;;5.90;3.83;;;;;;;8.45;80.41;100078.70;1705066;84;21206;-56
2022/09/21 03:20:08;;;;;;;6.65;4.05;;;;;;;8.41;80.48;100081.41;1708473;84;21190;-56
2022/09/21 03:23:13;;;;;;;4.70;3.20;;;;;;;8.37;80.52;100071.88;1708555;83;21257;-56
2022/09/21 03:26:22;;;;;;;6.65;4.42;;;;;;;8.33;80.52;100075.94;1708320;84;21186;-55
2022/09/21 03:29:27;;;;;;;5.25;3.92;;;;;;;8.27;80.34;100071.17;1706248;83;21253;-55
2022/09/21 03:32:33;;;;;;;4.78;3.45;;;;;;;8.18;80.22;100067.53;1706559;83;21262;-56
2022/09/21 03:35:38;;;;;;;4.35;3.55;;;;;;;8.14;80.14;100076.22;1706040;83;21218;-55
2022/09/21 03:38:45;;;;;;;8.95;4.50;;;;;;;8.11;80.15;100075.20;1708431;83;21242;-55
2022/09/21 03:41:51;;;;;;;7.00;3.95;;;;;;;8.08;80.23;100074.17;1706333;83;21226;-54
2022/09/21 03:44:58;;;;;;;6.70;3.70;;;;;;;8.04;80.23;100077.73;1708562;84;21226;-53
2022/09/21 03:48:05;;;;;;;7.30;4.15;;;;;;;8.01;80.25;100075.34;1706346;83;21285;-54
2022/09/21 03:51:11;;;;;;;8.33;3.83;;;;;;;7.99;80.29;100078.73;1683550;83;21226;-55
2022/09/21 03:54:17;;;;;;;4.97;3.62;;;;;;;8.00;80.30;100078.24;1708289;84;21202;-54
2022/09/21 03:57:26;;;;;;;7.20;4.20;;;;;;;7.99;80.34;100080.64;1706202;83;21249;-54
2022/09/21 04:00:32;;;;;;;7.62;3.60;;;;;;;7.98;80.36;100076.19;1708283;84;21198;-55
2022/09/21 04:03:38;;;;;;;6.17;3.72;;;;;;;7.96;80.30;100068.71;1706412;83;21230;-55
2022/09/21 04:06:45;;;;;;;5.50;3.27;;;;;;;7.96;80.36;100074.99;1708366;84;21210;-56
2022/09/21 04:09:53;;;;;;;5.95;3.27;;;;;;;7.99;80.43;100088.81;1704910;82;21392;-56
2022/09/21 04:12:59;;;;;;;5.90;3.72;;;;;;;8.02;80.53;100102.11;1706334;83;21385;-56
2022/09/21 04:16:06;;;;;;;5.45;3.45;;;;;;;8.04;80.56;100096.81;1706430;83;21211;-56
2022/09/21 04:19:13;;;;;;;5.25;3.87;;;;;;;8.04;80.52;100098.71;1706056;83;21249;-54
2022/09/21 04:22:19;;;;;;;5.33;3.40;;;;;;;8.05;80.51;100101.77;1706263;83;21253;-55
2022/09/21 04:25:24;;;;;;;6.33;4.12;;;;;;;8.09;80.53;100101.27;1689060;83;21211;-55
2022/09/21 04:28:31;;;;;;;6.20;3.52;;;;;;;8.16;80.62;100100.09;1706357;83;21226;-55
2022/09/21 04:31:39;;;;;;;6.50;3.92;;;;;;;8.24;80.74;100103.73;1706166;83;21226;-55
2022/09/21 04:34:46;;;;;;;5.55;3.95;;;;;;;8.29;80.76;100101.86;1689861;83;21395;-56
2022/09/21 04:37:53;;;;;;;4.15;3.12;;;;;;;8.34;80.75;100095.39;1706370;83;22145;-55
2022/09/21 04:41:03;;;;;;;5.28;3.37;;;;;;;8.41;80.80;100100.50;1706200;83;21198;-55
2022/09/21 04:44:10;;;;;;;6.62;3.95;;;;;;;8.53;80.91;100095.07;1706476;83;21273;-55
2022/09/21 04:47:22;;;;;;;4.90;3.42;;;;;;;8.69;80.99;100097.77;1705038;83;21218;-55
2022/09/21 04:50:30;;;;;;;3.92;3.35;;;;;;;8.84;80.99;100100.17;1670473;85;21223;-54
2022/09/21 04:53:37;;;;;;;6.62;3.25;;;;;;;8.99;81.05;100101.20;1651126;85;21757;-56
2022/09/21 04:56:42;;;;;;;9.53;3.98;;;;;;;9.13;81.07;100096.89;1679523;85;21256;-55
2022/09/21 04:59:50;;;;;;;5.30;3.62;;;;;;;9.22;80.98;100098.06;1645306;85;21306;-56
2022/09/21 05:02:57;;;;;;;6.75;3.37;;;;;;;9.31;80.88;100095.64;1644476;85;21244;-53
2022/09/21 05:06:03;;;;;;;6.33;3.52;;;;;;;9.40;80.90;100091.89;1689533;83;21268;-56
2022/09/21 05:12:34;;;;;;;5.70;3.40;;;;;;;9.55;80.97;100096.94;1658063;85;21220;-55
2022/09/21 05:15:39;;;;;;;4.55;3.75;;;;;;;9.67;80.98;100093.31;1613449;87;21244;-55
2022/09/21 05:18:44;;;;;;;8.93;3.60;;;;;;;9.76;80.98;100096.34;1605115;88;21275;-56
2022/09/21 05:21:50;;;;;;;6.10;4.17;;;;;;;9.88;81.06;100087.57;1595566;88;21747;-55
2022/09/21 05:24:56;;;;;;;5.50;3.72;;;;;;;10.03;81.14;100090.41;1617060;88;21808;-55
2022/09/21 05:28:01;;;;;;;5.17;3.77;;;;;;;10.17;81.19;100091.03;1608648;88;21250;-57
2022/09/21 05:31:53;;;;;;;7.22;4.10;;;;;;;10.29;81.22;100090.43;1621499;88;21364;-55
2022/09/21 05:35:46;;;;;;;4.28;3.72;;;;;;;10.41;81.25;100089.51;1620680;88;21803;-55
2022/09/21 05:38:55;;;;;;;6.58;3.95;;;;;;;10.55;81.20;100095.05;1620337;88;21293;-55
2022/09/21 05:42:00;;;;;;;5.53;4.30;;;;;;;10.71;81.21;100091.32;1620753;88;21598;-55
2022/09/21 05:45:07;;;;;;;5.15;4.28;;;;;;;10.86;81.11;100090.00;1621448;88;21331;-56
2022/09/21 05:48:30;;;;;;;6.20;4.55;;;;;;;10.98;81.06;100089.38;1595939;90;21333;-56
2022/09/21 05:51:49;;;;;;;8.10;5.20;;;;;;;11.10;81.03;100098.00;1595509;90;21242;-56
2022/09/21 05:55:25;;;;;;;7.10;5.55;;;;;;;11.17;80.86;100092.95;1599663;87;21238;-56
2022/09/21 05:58:44;;;;;;;8.83;5.22;;;;;;;11.26;80.81;100097.81;1597759;88;21799;-55
2022/09/21 06:02:17;;;;;;;5.90;4.78;;;;;;;11.34;80.71;100096.35;1594278;90;21249;-55
2022/09/21 06:05:25;;;;;;;12.10;4.90;;;;;;;11.44;80.68;100103.80;1597085;88;21290;-56
2022/09/21 06:08:31;;;;;;;6.65;4.97;;;;;;;11.50;80.69;100108.00;1616151;88;21246;-56
2022/09/21 06:11:38;;;;;;;5.70;5.08;;;;;;;11.56;80.67;100106.41;1628788;83;21321;-56
2022/09/21 06:14:46;;;;;;;8.73;5.03;;;;;;;11.61;80.70;100106.67;1659957;86;21244;-55
2022/09/21 06:17:51;;;;;;;6.75;6.00;;;;;;;11.70;80.71;100108.34;1623954;88;21227;-55
2022/09/21 06:20:57;;;;;;;8.35;5.58;;;;;;;11.81;80.76;100112.80;1682560;85;21201;-55
2022/09/21 06:24:04;;;;;;;5.17;4.60;;;;;;;11.91;80.74;100111.13;1658786;85;21252;-55
2022/09/21 06:27:10;;;;;;;7.35;4.87;;;;;;;12.00;80.65;100115.49;1650370;86;21582;-55
2022/09/21 06:30:18;;;;;;;26.75;20.60;;;;;;;12.10;80.57;100115.19;1689603;83;21226;-52
2022/09/21 06:33:24;;;;;;;161.50;103.58;;;;;;;12.18;80.49;100118.66;1657497;85;21633;-54
2022/09/21 06:36:31;;;;;;;22.60;16.97;;;;;;;12.24;80.40;100122.55;1676059;85;21810;-51
2022/09/21 06:39:43;;;;;;;10.98;7.90;;;;;;;12.29;80.37;100129.13;1657826;86;21230;-52
2022/09/21 06:42:52;;;;;;;23.60;18.40;;;;;;;12.34;80.34;100136.78;1658348;86;21241;-51
2022/09/21 06:46:06;;;;;;;8.50;6.35;;;;;;;12.37;80.35;100137.26;1660230;85;21240;-53
2022/09/21 06:49:13;;;;;;;6.08;4.50;;;;;;;12.39;80.38;100132.43;1658382;85;21233;-51
2022/09/21 06:52:18;;;;;;;13.18;9.13;;;;;;;12.40;80.38;100138.23;1637236;86;21292;-51
2022/09/21 06:55:24;;;;;;;5.50;4.90;;;;;;;12.43;80.44;100136.47;1658326;83;21280;-54
2022/09/21 06:58:37;;;;;;;6.37;5.75;;;;;;;12.45;80.39;100137.14;1678313;84;21256;-54
2022/09/21 07:01:57;;;;;;;6.23;5.03;;;;;;;12.49;80.38;100138.47;1684953;84;21208;-54
2022/09/21 07:05:03;;;;;;;4.75;4.10;;;;;;;12.51;80.39;100136.36;1684519;85;21237;-54
2022/09/21 07:08:10;;;;;;;6.47;5.05;;;;;;;12.56;80.50;100139.92;1684996;83;21283;-54
2022/09/21 07:11:22;;;;;;;8.90;5.72;;;;;;;12.66;80.61;100143.18;1672967;84;21222;-55
2022/09/21 07:14:33;;;;;;;6.50;4.17;;;;;;;12.83;80.66;100145.99;1664779;83;21801;-58
2022/09/21 07:17:44;;;;;;;4.85;3.40;;;;;;;12.91;80.55;100139.86;1664676;84;21270;-55
2022/09/21 07:20:53;;;;;;;3.70;3.27;;;;;;;12.94;80.43;100135.34;1680459;83;21743;-55
2022/09/21 07:24:08;;;;;;;4.55;3.58;;;;;;;12.92;80.32;100136.05;1686603;85;21279;-55
2022/09/21 07:27:14;;;;;;;3.62;2.77;;;;;;;12.88;80.27;100132.02;1686964;85;21814;-56
2022/09/21 07:30:23;;;;;;;3.10;2.70;;;;;;;12.86;80.23;100138.22;1686687;83;21272;-55
2022/09/21 07:33:32;;;;;;;3.50;2.87;;;;;;;12.88;80.32;100139.39;1678543;83;21615;-56
2022/09/21 07:36:41;;;;;;;4.72;3.30;;;;;;;12.89;80.25;100145.23;1658075;85;21337;-55
2022/09/21 07:39:46;;;;;;;5.70;4.53;;;;;;;12.90;80.24;100143.66;1657955;84;21286;-56
2022/09/21 07:43:05;;;;;;;4.50;3.15;;;;;;;12.96;80.30;100146.13;1669614;84;21253;-57
2022/09/21 07:46:30;;;;;;;5.62;3.08;;;;;;;13.01;80.31;100148.66;1646312;84;21293;-58
2022/09/21 07:49:41;;;;;;;6.45;2.85;;;;;;;13.04;80.26;100149.64;1721459;79;21227;-57
2022/09/21 07:52:49;;;;;;;4.20;3.10;;;;;;;13.09;80.26;100149.04;1716139;83;21385;-57
2022/09/21 07:55:54;;;;;;;12.25;8.75;;;;;;;13.11;80.23;100148.33;1716950;83;21268;-56
2022/09/21 07:59:05;;;;;;;5.90;2.90;;;;;;;13.10;80.17;100151.59;1717601;83;21245;-56
2022/09/21 08:02:11;;;;;;;3.65;2.83;;;;;;;13.16;80.33;100152.71;1710992;83;21789;-58
2022/09/21 08:05:19;;;;;;;3.75;2.80;;;;;;;13.28;80.45;100156.09;1694918;84;21606;-58
2022/09/21 08:08:28;;;;;;;5.03;2.50;;;;;;;13.37;80.31;100149.39;1772422;79;21778;-57
2022/09/21 08:11:36;;;;;;;4.12;3.40;;;;;;;13.44;80.27;100141.20;1779625;79;21213;-56
2022/09/21 08:14:42;;;;;;;4.30;2.40;;;;;;;13.49;80.20;100142.28;1780619;79;21223;-55
2022/09/21 08:17:50;;;;;;;3.98;2.80;;;;;;;13.52;80.12;100141.05;1779573;79;21193;-55
2022/09/21 08:21:07;;;;;;;11.38;7.70;;;;;;;13.52;80.09;100144.63;1775428;80;21221;-55
2022/09/21 08:24:16;;;;;;;2.65;2.33;;;;;;;13.60;80.16;100140.04;1773949;79;21248;-56
2022/09/21 08:27:26;;;;;;;3.75;2.80;;;;;;;13.65;80.03;100144.41;1742833;82;21326;-54
2022/09/21 08:30:33;;;;;;;4.47;2.90;;;;;;;13.73;80.16;100142.88;1666619;84;21262;-54
2022/09/21 08:33:39;;;;;;;16.25;9.83;;;;;;;13.81;80.16;100135.84;1707294;82;21272;-54
2022/09/21 08:36:47;;;;;;;4.25;2.50;;;;;;;13.87;80.11;100135.03;1715763;82;21575;-54
2022/09/21 08:39:54;;;;;;;4.55;2.30;;;;;;;13.92;80.09;100131.98;1712192;83;21232;-53
2022/09/21 08:43:09;;;;;;;2.75;2.05;;;;;;;14.00;80.03;100133.73;1711698;83;21563;-53
2022/09/21 08:46:23;;;;;;;3.75;2.15;;;;;;;14.10;79.92;100135.56;1713204;82;21290;-53
2022/09/21 08:49:31;;;;;;;7.25;3.85;;;;;;;14.16;79.78;100136.14;1716988;83;21264;-54
2022/09/21 08:52:38;;;;;;;3.17;1.90;;;;;;;14.22;79.82;100137.52;1719094;81;21205;-54
2022/09/21 08:55:46;;;;;;;4.58;2.15;;;;;;;14.34;79.71;100130.94;1775493;78;21240;-56
2022/09/21 08:58:53;;;;;;;2.67;1.90;;;;;;;14.40;79.48;100138.37;1780714;78;21210;-60
2022/09/21 09:02:26;;;;;;;2.40;2.10;;;;;;;14.41;79.32;100135.95;1775682;79;21244;-57
2022/09/21 09:06:14;;;;;;;2.20;1.90;;;;;;;14.39;79.30;100134.79;1778497;79;21607;-58
2022/09/21 09:09:55;;;;;;;3.47;2.17;;;;;;;14.37;79.25;100140.16;1772855;79;21221;-56
2022/09/21 09:13:34;;;;;;;2.80;2.30;;;;;;;14.35;79.18;100143.67;1785122;78;21268;-57
2022/09/21 09:16:58;;;;;;;15.45;9.43;;;;;;;14.30;79.14;100139.30;1700485;82;21181;-58
2022/09/21 09:20:28;;;;;;;4.28;2.30;;;;;;;14.24;79.02;100134.08;1687569;81;21225;-57
2022/09/21 09:23:46;;;;;;;4.08;2.10;;;;;;;14.25;79.02;100135.80;1731419;80;21256;-57
2022/09/21 09:27:02;;;;;;;11.60;6.10;;;;;;;14.29;79.06;100144.47;1737217;80;21268;-58
2022/09/21 09:30:25;;;;;;;3.90;2.60;;;;;;;14.34;79.09;100140.58;1811287;79;22134;-57
2022/09/21 09:33:38;;;;;;;;;;;;;;;14.39;79.12;100136.17;1805794;77;21585;-57
2022/09/21 09:36:44;;;;;;;3.72;2.35;;;;;;;14.41;78.99;100143.67;1774360;78;20236;-57
2022/09/21 09:39:58;;;;;;;11.63;2.33;;;;;;;14.42;78.98;100148.66;1792578;78;21176;-57
2022/09/21 09:43:11;;;;;;;4.12;2.30;;;;;;;14.39;78.91;100144.95;1796367;78;21364;-56
2022/09/21 09:46:30;;;;;;;3.58;2.30;;;;;;;14.35;78.87;100149.18;1742960;82;21212;-56
2022/09/21 09:50:09;;;;;;;4.37;2.27;;;;;;;14.33;78.90;100149.91;1722310;82;21369;-55
2022/09/21 09:53:25;;;;;;;4.20;3.47;;;;;;;14.30;78.90;100151.15;1691094;82;21193;-57
2022/09/21 09:56:32;;;;;;;4.40;2.77;;;;;;;14.25;78.98;100151.45;1703821;83;21209;-57
2022/09/21 09:59:51;;;;;;;4.85;3.37;;;;;;;14.25;79.08;100148.70;1698854;84;21488;-57
2022/09/21 10:03:01;;;;;;;9.15;5.33;;;;;;;14.29;79.10;100158.23;1705436;81;21284;-58
2022/09/21 10:06:06;;;;;;;3.92;3.10;;;;;;;14.33;79.17;100159.55;1680763;83;21204;-57
2022/09/21 10:09:38;;;;;;;4.35;2.58;;;;;;;14.32;79.16;100155.93;1728916;81;21221;-58
2022/09/21 10:16:33;;;;;;;4.50;2.67;;;;;;;14.47;79.31;100150.27;1675007;85;21773;-59
2022/09/21 10:19:40;;;;;;;3.30;2.80;;;;;;;14.53;79.29;100153.05;1654846;86;21225;-58
2022/09/21 10:22:48;;;;;;;4.85;2.60;;;;;;;14.56;79.23;100156.77;1637665;86;21227;-59
2022/09/21 10:26:06;;;;;;;2.65;2.20;;;;;;;14.56;79.12;100155.91;1649311;86;21297;-59
2022/09/21 10:29:31;;;;;;;2.77;2.40;;;;;;;14.55;79.00;100161.11;1639321;86;21241;-59
2022/09/21 10:32:40;;;;;;;2.90;2.37;;;;;;;14.47;78.89;100158.54;1679931;83;21251;-58
2022/09/21 10:36:33;;;;;;;4.53;2.70;;;;;;;14.42;78.93;100164.67;1641603;86;21913;-57
2022/09/21 10:39:53;;;;;;;3.37;2.72;;;;;;;14.49;79.06;100160.56;1661711;85;21197;-58
2022/09/21 10:43:26;;;;;;;3.10;2.67;;;;;;;14.65;79.01;100161.58;1849381;76;22325;-57
2022/09/21 10:46:43;;;;;;;4.87;2.25;;;;;;;14.64;79.01;100159.34;1755120;80;21343;-58
2022/09/21 10:50:14;;;;;;;3.15;2.27;;;;;;;14.69;78.97;100160.95;1766423;81;21447;-56
2022/09/21 10:53:42;;;;;;;12.00;7.25;;;;;;;14.81;78.89;100157.03;1863616;76;22798;-54
2022/09/21 10:56:59;;;;;;;2.67;2.27;;;;;;;14.80;78.91;100156.73;1803185;79;21192;-57
2022/09/21 11:00:05;;;;;;;2.98;2.00;;;;;;;14.88;78.90;100155.16;1802022;78;21596;-56
2022/09/21 11:03:46;;;;;;;2.52;2.27;;;;;;;14.97;78.80;100164.40;1798298;79;21750;-56
2022/09/21 11:06:55;;;;;;;3.77;2.40;;;;;;;15.03;78.69;100153.91;1755181;81;21249;-53
2022/09/21 11:10:22;;;;;;;3.80;2.00;;;;;;;15.12;78.65;100153.19;1737695;82;21283;-51
2022/09/21 11:14:02;;;;;;;3.62;2.50;;;;;;;15.13;78.51;100152.66;1782047;79;21694;-53
2022/09/21 11:17:19;;;;;;;3.67;2.37;;;;;;;15.12;78.46;100160.08;1784430;79;21196;-57
2022/09/21 11:20:58;;;;;;;3.10;2.58;;;;;;;15.10;78.35;100155.81;1784005;78;21198;-56
2022/09/21 11:24:25;;;;;;;3.98;3.17;;;;;;;15.09;78.34;100159.13;1771699;79;21393;-60
2022/09/21 11:27:40;;;;;;;2.85;2.33;;;;;;;15.04;78.24;100158.91;1784345;79;21336;-58
2022/09/21 11:30:50;;;;;;;3.70;2.40;;;;;;;14.97;78.11;100159.41;1776710;79;21351;-57
2022/09/21 11:34:17;;;;;;;4.90;3.42;;;;;;;14.87;78.16;100159.81;1770715;81;21817;-59
2022/09/21 11:37:45;;;;;;;3.05;2.60;;;;;;;14.83;78.26;100161.82;1781278;79;21699;-59
2022/09/21 11:41:09;;;;;;;3.10;2.75;;;;;;;14.81;78.34;100164.78;1785230;80;21182;-59
2022/09/21 11:44:50;;;;;;;5.85;2.70;;;;;;;14.81;78.37;100174.43;1787747;80;21213;-60
2022/09/21 11:48:34;;;;;;;3.90;3.10;;;;;;;14.82;78.39;100180.80;1786220;79;21221;-59
2022/09/21 11:52:10;;;;;;;7.78;5.05;;;;;;;14.81;78.43;100174.95;1770186;81;21753;-58
2022/09/21 11:55:37;;;;;;;8.73;6.03;;;;;;;14.78;78.45;100178.98;1736400;81;22027;-59
2022/09/21 11:59:12;;;;;;;15.83;10.78;;;;;;;14.76;78.42;100175.58;1730019;81;21228;-60
2022/09/21 12:02:50;;;;;;;3.80;3.10;;;;;;;14.76;78.39;100180.27;1745138;81;21178;-60
2022/09/21 12:06:08;;;;;;;5.30;3.70;;;;;;;14.77;78.36;100181.95;1745193;81;21280;-61
2022/09/21 12:09:37;;;;;;;5.90;4.15;;;;;;;14.84;78.42;100183.66;1752399;80;21636;-60
2022/09/21 12:12:53;;;;;;;4.58;3.22;;;;;;;14.93;78.38;100184.33;1741314;81;21982;-60
2022/09/21 12:16:15;;;;;;;3.77;2.83;;;;;;;14.92;78.14;100186.77;1728469;81;21197;-60
2022/09/21 12:19:32;;;;;;;3.80;2.95;;;;;;;14.85;78.01;100187.27;1746096;81;21742;-60
2022/09/21 12:22:47;;;;;;;4.33;3.27;;;;;;;14.79;77.95;100199.13;1756814;81;21201;-58
2022/09/21 12:25:57;;;;;;;4.65;2.98;;;;;;;14.71;77.90;100191.05;1762887;80;21249;-59
2022/09/21 12:29:12;;;;;;;5.83;2.83;;;;;;;14.64;77.84;100201.19;1766682;80;21727;-59
2022/09/21 12:32:29;;;;;;;13.10;7.53;;;;;;;14.60;77.85;100206.80;1727485;80;21253;-59
2022/09/21 12:36:04;;;;;;;16.20;8.98;;;;;;;14.54;77.91;100207.08;1765552;80;21209;-60
2022/09/21 12:39:21;;;;;;;7.58;5.45;;;;;;;14.53;77.98;100210.05;1762208;81;21320;-60
2022/09/21 12:42:33;;;;;;;7.47;4.80;;;;;;;14.55;77.91;100207.94;1763457;81;21189;-61
2022/09/21 12:46:03;;;;;;;6.67;4.20;;;;;;;14.56;77.90;100206.87;1764544;81;21221;-58
2022/09/21 12:49:39;;;;;;;6.60;4.12;;;;;;;14.66;77.84;100214.23;1838584;74;22414;-56
2022/09/21 12:52:59;;;;;;;6.47;4.55;;;;;;;14.61;77.81;100210.73;1805105;77;21191;-57
2022/09/21 12:56:15;;;;;;;6.70;4.80;;;;;;;14.63;77.73;100208.62;1800587;77;21195;-58
2022/09/21 12:59:50;;;;;;;14.63;12.85;;;;;;;14.63;77.73;100213.27;1810739;76;21769;-59
2022/09/21 13:03:12;;;;;;;6.03;4.87;;;;;;;14.67;77.79;100216.78;1805960;77;21290;-59
2022/09/21 13:07:10;;;;;;;8.50;5.83;;;;;;;14.69;77.80;100216.06;1807798;76;21195;-59
2022/09/21 13:10:54;;;;;;;7.40;5.08;;;;;;;14.69;77.71;100213.30;1813085;76;21228;-61
2022/09/21 13:14:09;;;;;;;3.65;2.75;;;;;;;14.73;77.74;100208.23;1799594;76;21337;-59
2022/09/21 13:17:26;;;;;;;3.77;3.10;;;;;;;14.77;77.71;100215.02;1811532;76;21396;-58
2022/09/21 13:20:45;;;;;;;27.13;20.97;;;;;;;14.83;77.73;100209.53;1820856;76;21393;-58
2022/09/21 13:24:07;;;;;;;5.95;4.08;;;;;;;14.91;77.67;100208.48;1811274;75;21243;-59
2022/09/21 13:27:14;;;;;;;4.80;3.15;;;;;;;14.95;77.57;100205.09;1828998;76;21176;-55
2022/09/21 13:30:40;;;;;;;5.40;2.10;;;;;;;15.01;77.49;100204.26;1829282;75;21196;-58
2022/09/21 13:33:47;;;;;;;5.42;3.10;;;;;;;15.08;77.42;100200.14;1800667;77;21715;-56
2022/09/21 13:36:55;;;;;;;4.17;2.42;;;;;;;15.14;77.29;100202.09;1765941;78;21227;-57
2022/09/21 13:40:11;;;;;;;3.52;2.60;;;;;;;15.17;77.27;100200.28;1724776;78;21248;-56
2022/09/21 13:43:24;;;;;;;3.65;2.62;;;;;;;15.22;77.22;100197.75;1798249;78;21199;-57
2022/09/21 13:46:47;;;;;;;34.55;23.05;;;;;;;15.23;77.17;100193.92;1813090;77;21263;-57
2022/09/21 13:49:56;;;;;;;3.67;2.92;;;;;;;15.25;77.10;100197.33;1819247;77;21705;-57
2022/09/21 13:53:15;;;;;;;4.58;2.98;;;;;;;15.21;76.97;100194.66;1794671;76;21497;-55
2022/09/21 13:56:32;;;;;;;4.35;2.92;;;;;;;15.19;76.92;100200.08;1806703;78;21152;-55
2022/09/21 13:59:39;;;;;;;3.75;3.00;;;;;;;15.11;76.79;100201.09;1806663;77;21203;-58
2022/09/21 14:02:53;;;;;;;18.50;7.35;;;;;;;15.04;76.82;100200.25;1809387;76;21164;-57
2022/09/21 14:06:31;;;;;;;10.95;5.08;;;;;;;14.98;76.84;100199.72;1812499;77;21172;-58
2022/09/21 14:09:40;;;;;;;7.55;4.83;;;;;;;14.92;76.87;100197.80;1829581;77;21169;-58
2022/09/21 14:12:49;;;;;;;7.12;4.40;;;;;;;14.79;76.77;100199.13;1826862;76;21305;-59
2022/09/21 14:15:56;;;;;;;5.72;4.15;;;;;;;14.72;76.83;100202.38;1811224;76;21200;-59
2022/09/21 14:19:02;;;;;;;9.08;4.95;;;;;;;14.66;76.82;100203.22;1811212;76;21156;-58
2022/09/21 14:22:18;;;;;;;7.78;4.42;;;;;;;14.63;76.82;100207.77;1802152;76;21243;-58
2022/09/21 14:25:35;;;;;;;12.70;7.17;;;;;;;14.59;76.80;100209.22;1794360;79;22055;-58
2022/09/21 14:28:46;;;;;;;9.25;4.95;;;;;;;14.52;76.74;100200.95;1806912;76;21736;-58
2022/09/21 14:31:51;;;;;;;9.38;5.90;;;;;;;14.49;76.79;100206.02;1768872;78;21739;-59
2022/09/21 14:35:00;;;;;;;7.70;5.08;;;;;;;14.44;76.77;100212.66;1751618;79;21935;-58
2022/09/21 14:38:13;;;;;;;13.15;6.60;;;;;;;14.41;76.76;100219.95;1736875;78;21194;-59
2022/09/21 14:41:22;;;;;;;9.80;6.47;;;;;;;14.35;76.75;100220.23;1728939;80;21225;-56
2022/09/21 14:44:31;;;;;;;12.33;6.62;;;;;;;14.31;76.73;100217.58;1725627;76;21244;-60
2022/09/21 14:48:02;;;;;;;12.00;8.45;;;;;;;14.20;76.60;100220.88;1798414;76;21517;-58
2022/09/21 14:51:18;;;;;;;12.30;7.17;;;;;;;14.10;76.60;100214.88;1804307;79;21175;-58
2022/09/21 14:54:51;;;;;;;18.20;12.00;;;;;;;14.04;76.67;100226.70;1800745;75;21208;-59
2022/09/21 14:58:26;;;;;;;21.35;12.68;;;;;;;14.00;76.75;100228.69;1802993;76;21210;-58
2022/09/21 15:01:45;;;;;;;9.98;7.28;;;;;;;13.96;76.78;100224.62;1821507;76;21136;-59
2022/09/21 15:05:15;;;;;;;7.08;4.87;;;;;;;13.90;76.72;100229.55;1815685;76;21744;-59
2022/09/21 15:12:26;;;;;;;8.88;5.85;;;;;;;13.87;76.84;100236.84;1822272;76;21779;-57
2022/09/21 15:16:07;;;;;;;13.55;9.63;;;;;;;13.87;76.94;100236.84;1795450;78;21187;-57
2022/09/21 15:19:33;;;;;;;14.68;10.82;;;;;;;13.88;76.90;100237.16;1805435;77;21202;-58